Home > Products > Valid Products > TAF

000
FTUS43 KOAX 312320
TAFLNK
TAF
KLNK 312320Z 0100/0124 18011KT P6SM SKC
     FM011000 17006KT 4SM BR SKC
     FM011400 20012KT P6SM SKC=



000
FTUS43 KOAX 312320
TAFOFK
TAF
KOFK 312320Z 0100/0124 19008KT P6SM SCT200=



000
FTUS43 KOAX 312320
TAFOMA
TAF
KOMA 312320Z 0100/0124 18010KT P6SM SKC
     FM011000 16006KT 4SM BR SKC
     FM011400 19012KT P6SM SKC=



000
FTUS43 KOAX 312320
TAFOFK
TAF
KOFK 312320Z 0100/0124 19008KT P6SM SCT200=



000
FTUS43 KOAX 312320
TAFLNK
TAF
KLNK 312320Z 0100/0124 18011KT P6SM SKC
     FM011000 17006KT 4SM BR SKC
     FM011400 20012KT P6SM SKC=



000
FTUS43 KOAX 311734
TAFOFK
TAF
KOFK 311734Z 3118/0118 18012G20KT P6SM SKC
     FM312200 19008KT P6SM SKC=



000
FTUS43 KOAX 311734
TAFOMA
TAF
KOMA 311734Z 3118/0118 18010KT P6SM SCT025
     FM011000 16006KT 5SM BR SKC
     FM011400 19009KT P6SM SKC=



000
FTUS43 KOAX 311734
TAFOFK
TAF
KOFK 311734Z 3118/0118 18012G20KT P6SM SKC
     FM312200 19008KT P6SM SKC=



000
FTUS43 KOAX 311734
TAFLNK
TAF
KLNK 311734Z 3118/0118 18011KT P6SM SKC
     FM011000 17006KT 5SM BR SKC
     FM011400 20011KT P6SM SKC=



000
FTUS43 KOAX 311734
TAFOMA
TAF
KOMA 311734Z 3118/0118 18010KT P6SM SCT025
     FM011000 16006KT 5SM BR SKC
     FM011400 19009KT P6SM SKC=



000
FTUS43 KOAX 311734
TAFLNK
TAF
KLNK 311734Z 3118/0118 18011KT P6SM SKC
     FM011000 17006KT 5SM BR SKC
     FM011400 20011KT P6SM SKC=



000
FTUS43 KOAX 311459 AAB
TAFOFK
TAF AMD
KOFK 311459Z 3115/0112 18007KT 5SM BR SCT005
     FM311600 18010KT P6SM SKC
     FM311800 18014G21KT P6SM SKC
     FM312200 17006KT P6SM SKC=



000
FTUS43 KOAX 311459 AAB
TAFOMA
TAF AMD
KOMA 311459Z 3115/0112 18010KT P6SM SKC
     FM311800 17011G18KT P6SM SKC
     FM312000 16007KT P6SM SKC=



000
FTUS43 KOAX 311459 AAB
TAFLNK
TAF AMD
KLNK 311459Z 3115/0112 18010KT P6SM SKC
     FM312000 18011G17KT P6SM SKC
     FM312100 17006KT P6SM SKC=



000
FTUS43 KOAX 311459 AAB
TAFOFK
TAF AMD
KOFK 311459Z 3115/0112 18007KT 5SM BR SCT005
     FM311600 18010KT P6SM SKC
     FM311800 18014G21KT P6SM SKC
     FM312200 17006KT P6SM SKC=



000
FTUS43 KOAX 311459 AAB
TAFOMA
TAF AMD
KOMA 311459Z 3115/0112 18010KT P6SM SKC
     FM311800 17011G18KT P6SM SKC
     FM312000 16007KT P6SM SKC=



000
FTUS43 KOAX 311459 AAB
TAFLNK
TAF AMD
KLNK 311459Z 3115/0112 18010KT P6SM SKC
     FM312000 18011G17KT P6SM SKC
     FM312100 17006KT P6SM SKC=



000
FTUS43 KOAX 311313 AAA
TAFLNK
TAF AMD
KLNK 311313Z 3113/0112 17007KT 2SM BR SCT005
      TEMPO 3113/3114 1SM BR BKN005
     FM311400 17008KT 4SM BR SCT005
     FM311500 18009KT P6SM SKC
     FM312000 18011G17KT P6SM SKC
     FM312100 17006KT P6SM SKC=



000
FTUS43 KOAX 311313 AAA
TAFOFK
TAF AMD
KOFK 311313Z 3113/0112 18007KT 3SM BR SCT005
     FM311500 18010KT P6SM SKC
     FM311700 18014G21KT P6SM SKC
     FM312200 17006KT P6SM SKC=



000
FTUS43 KOAX 311313 AAA
TAFLNK
TAF AMD
KLNK 311313Z 3113/0112 17007KT 2SM BR SCT005
      TEMPO 3113/3114 1SM BR BKN005
     FM311400 17008KT 4SM BR SCT005
     FM311500 18009KT P6SM SKC
     FM312000 18011G17KT P6SM SKC
     FM312100 17006KT P6SM SKC=



000
FTUS43 KOAX 311313 AAA
TAFOMA
TAF AMD
KOMA 311313Z 3113/0112 17007KT 2SM BR SCT005
      TEMPO 3113/3114 1SM BR BKN005
     FM311400 16006KT 5SM BR SCT006
     FM311500 17010KT P6SM SKC
     FM311800 17011G18KT P6SM SKC
     FM312000 16007KT P6SM SKC=



000
FTUS43 KOAX 311313 AAA
TAFOFK
TAF AMD
KOFK 311313Z 3113/0112 18007KT 3SM BR SCT005
     FM311500 18010KT P6SM SKC
     FM311700 18014G21KT P6SM SKC
     FM312200 17006KT P6SM SKC=



000
FTUS43 KOAX 311313 AAA
TAFOMA
TAF AMD
KOMA 311313Z 3113/0112 17007KT 2SM BR SCT005
      TEMPO 3113/3114 1SM BR BKN005
     FM311400 16006KT 5SM BR SCT006
     FM311500 17010KT P6SM SKC
     FM311800 17011G18KT P6SM SKC
     FM312000 16007KT P6SM SKC=



000
FTUS43 KOAX 311121
TAFOMA
TAF
KOMA 311121Z 3112/0112 17007KT 3SM BR SCT250
      TEMPO 3112/3114 1SM BR BKN007
     FM311400 16006KT P6SM SCT250
     FM311800 17011G18KT P6SM SKC
     FM312000 16007KT P6SM SKC=



000
FTUS43 KOAX 311121
TAFOFK
TAF
KOFK 311121Z 3112/0112 18007KT 3SM BR OVC015
     FM311400 18010KT P6SM SKC
     FM311700 18014G21KT P6SM SKC
     FM312200 17006KT P6SM SKC=



000
FTUS43 KOAX 311121
TAFLNK
TAF
KLNK 311121Z 3112/0112 17007KT 3SM BR SCT250
      TEMPO 3112/3114 1SM BR BKN007
     FM311500 18009KT P6SM SKC
     FM312000 18011G17KT P6SM SKC
     FM312100 17006KT P6SM SKC=



000
FTUS43 KOAX 311121
TAFLNK
TAF
KLNK 311121Z 3112/0112 17007KT 3SM BR SCT250
      TEMPO 3112/3114 1SM BR BKN007
     FM311500 18009KT P6SM SKC
     FM312000 18011G17KT P6SM SKC
     FM312100 17006KT P6SM SKC=



000
FTUS43 KOAX 311121
TAFOFK
TAF
KOFK 311121Z 3112/0112 18007KT 3SM BR OVC015
     FM311400 18010KT P6SM SKC
     FM311700 18014G21KT P6SM SKC
     FM312200 17006KT P6SM SKC=



000
FTUS43 KOAX 311121
TAFOMA
TAF
KOMA 311121Z 3112/0112 17007KT 3SM BR SCT250
      TEMPO 3112/3114 1SM BR BKN007
     FM311400 16006KT P6SM SCT250
     FM311800 17011G18KT P6SM SKC
     FM312000 16007KT P6SM SKC=



000
FTUS43 KOAX 311121
TAFLNK
TAF
KLNK 311121Z 3112/0112 17007KT 3SM BR SCT250
      TEMPO 3112/3114 1SM BR BKN007
     FM311500 18009KT P6SM SKC
     FM312000 18011G17KT P6SM SKC
     FM312100 17006KT P6SM SKC=



000
FTUS43 KOAX 311121
TAFOFK
TAF
KOFK 311121Z 3112/0112 18007KT 3SM BR OVC015
     FM311400 18010KT P6SM SKC
     FM311700 18014G21KT P6SM SKC
     FM312200 17006KT P6SM SKC=



000
FTUS43 KOAX 311121
TAFOMA
TAF
KOMA 311121Z 3112/0112 17007KT 3SM BR SCT250
      TEMPO 3112/3114 1SM BR BKN007
     FM311400 16006KT P6SM SCT250
     FM311800 17011G18KT P6SM SKC
     FM312000 16007KT P6SM SKC=



000
FTUS43 KOAX 311121
TAFOFK
TAF
KOFK 311121Z 3112/0112 18007KT 3SM BR OVC015
     FM311400 18010KT P6SM SKC
     FM311700 18014G21KT P6SM SKC
     FM312200 17006KT P6SM SKC=



000
FTUS43 KOAX 311121
TAFOMA
TAF
KOMA 311121Z 3112/0112 17007KT 3SM BR SCT250
      TEMPO 3112/3114 1SM BR BKN007
     FM311400 16006KT P6SM SCT250
     FM311800 17011G18KT P6SM SKC
     FM312000 16007KT P6SM SKC=



000
FTUS43 KOAX 311121
TAFLNK
TAF
KLNK 311121Z 3112/0112 17007KT 3SM BR SCT250
      TEMPO 3112/3114 1SM BR BKN007
     FM311500 18009KT P6SM SKC
     FM312000 18011G17KT P6SM SKC
     FM312100 17006KT P6SM SKC=



000
FTUS43 KOAX 310520
TAFOFK
TAF
KOFK 310520Z 3106/0106 17011KT P6SM BKN250
      TEMPO 3110/3114 18009KT 4SM BR
     FM311400 19011KT P6SM SCT200
     FM311600 18014G22KT P6SM SCT150
     FM010000 16007KT P6SM BKN150=



000
FTUS43 KOAX 310520
TAFLNK
TAF
KLNK 310520Z 3106/0106 16005KT P6SM BKN250
     FM310800 17004KT 5SM BR BKN250
      TEMPO 3110/3114 2SM BR
     FM311500 18012G18KT P6SM SCT250
     FM010000 15007KT P6SM BKN150=



000
FTUS43 KOAX 310520
TAFOFK
TAF
KOFK 310520Z 3106/0106 17011KT P6SM BKN250
      TEMPO 3110/3114 18009KT 4SM BR
     FM311400 19011KT P6SM SCT200
     FM311600 18014G22KT P6SM SCT150
     FM010000 16007KT P6SM BKN150=



000
FTUS43 KOAX 310520
TAFOMA
TAF
KOMA 310520Z 3106/0106 16005KT P6SM BKN250
     FM310800 15005KT 4SM BR BKN250
      TEMPO 3110/3114 1 1/2SM BR BKN007
     FM311500 17012G18KT P6SM SCT250
     FM010000 15007KT P6SM SCT150=



000
FTUS43 KOAX 310520
TAFLNK
TAF
KLNK 310520Z 3106/0106 16005KT P6SM BKN250
     FM310800 17004KT 5SM BR BKN250
      TEMPO 3110/3114 2SM BR
     FM311500 18012G18KT P6SM SCT250
     FM010000 15007KT P6SM BKN150=



000
FTUS43 KOAX 310520
TAFOMA
TAF
KOMA 310520Z 3106/0106 16005KT P6SM BKN250
     FM310800 15005KT 4SM BR BKN250
      TEMPO 3110/3114 1 1/2SM BR BKN007
     FM311500 17012G18KT P6SM SCT250
     FM010000 15007KT P6SM SCT150=



000
FTUS43 KOAX 310520
TAFOFK
TAF
KOFK 310520Z 3106/0106 17011KT P6SM BKN250
      TEMPO 3110/3114 18009KT 4SM BR
     FM311400 19011KT P6SM SCT200
     FM311600 18014G22KT P6SM SCT150
     FM010000 16007KT P6SM BKN150=



000
FTUS43 KOAX 310520
TAFLNK
TAF
KLNK 310520Z 3106/0106 16005KT P6SM BKN250
     FM310800 17004KT 5SM BR BKN250
      TEMPO 3110/3114 2SM BR
     FM311500 18012G18KT P6SM SCT250
     FM010000 15007KT P6SM BKN150=



000
FTUS43 KOAX 310520
TAFLNK
TAF
KLNK 310520Z 3106/0106 16005KT P6SM BKN250
     FM310800 17004KT 5SM BR BKN250
      TEMPO 3110/3114 2SM BR
     FM311500 18012G18KT P6SM SCT250
     FM010000 15007KT P6SM BKN150=



000
FTUS43 KOAX 310520
TAFOFK
TAF
KOFK 310520Z 3106/0106 17011KT P6SM BKN250
      TEMPO 3110/3114 18009KT 4SM BR
     FM311400 19011KT P6SM SCT200
     FM311600 18014G22KT P6SM SCT150
     FM010000 16007KT P6SM BKN150=



000
FTUS43 KOAX 310520
TAFOMA
TAF
KOMA 310520Z 3106/0106 16005KT P6SM BKN250
     FM310800 15005KT 4SM BR BKN250
      TEMPO 3110/3114 1 1/2SM BR BKN007
     FM311500 17012G18KT P6SM SCT250
     FM010000 15007KT P6SM SCT150=



000
FTUS43 KOAX 310520
TAFOMA
TAF
KOMA 310520Z 3106/0106 16005KT P6SM BKN250
     FM310800 15005KT 4SM BR BKN250
      TEMPO 3110/3114 1 1/2SM BR BKN007
     FM311500 17012G18KT P6SM SCT250
     FM010000 15007KT P6SM SCT150=



000
FTUS43 KOAX 302320
TAFOMA
TAF
KOMA 302320Z 3100/3124 16006KT P6SM SCT250
     FM310900 15005KT 4SM BR SCT250
      TEMPO 3110/3114 1 1/2SM BR BKN007
     FM311500 17010KT P6SM SCT250=



000
FTUS43 KOAX 302320
TAFOMA
TAF
KOMA 302320Z 3100/3124 16006KT P6SM SCT250
     FM310900 15005KT 4SM BR SCT250
      TEMPO 3110/3114 1 1/2SM BR BKN007
     FM311500 17010KT P6SM SCT250=



000
FTUS43 KOAX 302320
TAFLNK
TAF
KLNK 302320Z 3100/3124 16006KT P6SM SCT250
      TEMPO 3110/3114 5SM BR
     FM311500 18010KT P6SM SCT250=



000
FTUS43 KOAX 302320
TAFOFK
TAF
KOFK 302320Z 3100/3124 16011KT P6SM SCT250
      TEMPO 3110/3114 18006KT 6SM BR
     FM311400 18011KT P6SM SCT200
     FM311600 18014G22KT P6SM SCT150=



000
FTUS43 KOAX 302320
TAFOMA
TAF
KOMA 302320Z 3100/3124 16006KT P6SM SCT250
     FM310900 15005KT 4SM BR SCT250
      TEMPO 3110/3114 1 1/2SM BR BKN007
     FM311500 17010KT P6SM SCT250=



000
FTUS43 KOAX 302320
TAFLNK
TAF
KLNK 302320Z 3100/3124 16006KT P6SM SCT250
      TEMPO 3110/3114 5SM BR
     FM311500 18010KT P6SM SCT250=



000
FTUS43 KOAX 302320
TAFOFK
TAF
KOFK 302320Z 3100/3124 16011KT P6SM SCT250
      TEMPO 3110/3114 18006KT 6SM BR
     FM311400 18011KT P6SM SCT200
     FM311600 18014G22KT P6SM SCT150=



000
FTUS43 KOAX 302320
TAFLNK
TAF
KLNK 302320Z 3100/3124 16006KT P6SM SCT250
      TEMPO 3110/3114 5SM BR
     FM311500 18010KT P6SM SCT250=



000
FTUS43 KOAX 302320
TAFOFK
TAF
KOFK 302320Z 3100/3124 16011KT P6SM SCT250
      TEMPO 3110/3114 18006KT 6SM BR
     FM311400 18011KT P6SM SCT200
     FM311600 18014G22KT P6SM SCT150=



000
FTUS43 KOAX 302320
TAFOMA
TAF
KOMA 302320Z 3100/3124 16006KT P6SM SCT250
     FM310900 15005KT 4SM BR SCT250
      TEMPO 3110/3114 1 1/2SM BR BKN007
     FM311500 17010KT P6SM SCT250=



000
FTUS43 KOAX 302320
TAFOFK
TAF
KOFK 302320Z 3100/3124 16011KT P6SM SCT250
      TEMPO 3110/3114 18006KT 6SM BR
     FM311400 18011KT P6SM SCT200
     FM311600 18014G22KT P6SM SCT150=



000
FTUS43 KOAX 302100 AAA
TAFOFK
TAF AMD
KOFK 302100Z 3021/3118 16012KT P6SM SKC
     FM310900 18006KT 3SM BR SKC
     FM311500 19010KT P6SM SKC=



000
FTUS43 KOAX 302100 AAA
TAFOFK
TAF AMD
KOFK 302100Z 3021/3118 16012KT P6SM SKC
     FM310900 18006KT 3SM BR SKC
     FM311500 19010KT P6SM SKC=



000
FTUS43 KOAX 302100 AAA
TAFOFK
TAF AMD
KOFK 302100Z 3021/3118 16012KT P6SM SKC
     FM310900 18006KT 3SM BR SKC
     FM311500 19010KT P6SM SKC=



000
FTUS43 KOAX 302100 AAA
TAFOFK
TAF AMD
KOFK 302100Z 3021/3118 16012KT P6SM SKC
     FM310900 18006KT 3SM BR SKC
     FM311500 19010KT P6SM SKC=



000
FTUS43 KOAX 302058 AAA
TAFOMA
TAF AMD
KOMA 302058Z 3021/3118 19010KT P6SM SCT022 BKN250
     FM302200 16009KT P6SM SKC
     FM310900 15006KT 3SM BR SKC
     FM311500 17008KT P6SM SKC=



000
FTUS43 KOAX 302058 AAA
TAFOMA
TAF AMD
KOMA 302058Z 3021/3118 19010KT P6SM SCT022 BKN250
     FM302200 16009KT P6SM SKC
     FM310900 15006KT 3SM BR SKC
     FM311500 17008KT P6SM SKC=



000
FTUS43 KOAX 301720
TAFOMA
TAF
KOMA 301720Z 3018/3118 17010KT P6SM OVC011
     FM302200 16009KT P6SM SKC
     FM310900 15006KT 3SM BR SKC
     FM311500 17008KT P6SM SKC=



000
FTUS43 KOAX 301720
TAFOFK
TAF
KOFK 301720Z 3018/3118 18011KT P6SM BKN010
     FM301900 18014G20KT P6SM SKC
     FM310000 16008KT P6SM SKC
     FM310900 18006KT 3SM BR SKC
     FM311500 19010KT P6SM SKC=



000
FTUS43 KOAX 301720
TAFLNK
TAF
KLNK 301720Z 3018/3118 18008KT P6SM OVC011
     FM302100 16006KT P6SM SKC
     FM310900 16004KT 3SM BR SKC
     FM311500 16007KT P6SM SKC=



000
FTUS43 KOAX 301636 AAB
TAFOFK
TAF AMD
KOFK 301636Z 3017/3112 18008KT P6SM BKN005
     FM301800 18013G20KT P6SM SKC
     FM310000 16008KT P6SM SKC=



000
FTUS43 KOAX 301636 AAB
TAFOFK
TAF AMD
KOFK 301636Z 3017/3112 18008KT P6SM BKN005
     FM301800 18013G20KT P6SM SKC
     FM310000 16008KT P6SM SKC=



000
FTUS43 KOAX 301439 AAA
TAFOMA
TAF AMD
KOMA 301439Z 3015/3112 18007KT 3SM BR OVC007
     FM301700 17010KT P6SM SCT015
     FM310100 15007KT P6SM SKC=



000
FTUS43 KOAX 301439 AAA
TAFOMA
TAF AMD
KOMA 301439Z 3015/3112 18007KT 3SM BR OVC007
     FM301700 17010KT P6SM SCT015
     FM310100 15007KT P6SM SKC=



000
FTUS43 KOAX 301437 AAA
TAFOFK
TAF AMD
KOFK 301437Z 3015/3112 19006KT 3SM BR OVC003
      TEMPO 3015/3017 P6SM NSW SCT010
     FM301700 18013G20KT P6SM SKC
     FM310000 16008KT P6SM SKC=



000
FTUS43 KOAX 301437 AAA
TAFOFK
TAF AMD
KOFK 301437Z 3015/3112 19006KT 3SM BR OVC003
      TEMPO 3015/3017 P6SM NSW SCT010
     FM301700 18013G20KT P6SM SKC
     FM310000 16008KT P6SM SKC=



000
FTUS43 KOAX 301120
TAFOFK
TAF
KOFK 301120Z 3012/3112 18007KT 1 1/2SM BR OVC002
      TEMPO 3012/3014 1/2SM FG
     FM301400 17006KT 2SM BR BKN005
      TEMPO 3015/3017 P6SM NSW SCT010
     FM301700 18013G20KT P6SM SKC
     FM310000 16008KT P6SM SKC=



000
FTUS43 KOAX 301120
TAFOMA
TAF
KOMA 301120Z 3012/3112 19005KT 3SM BR OVC004
      TEMPO 3012/3014 3/4SM BR OVC002
     FM301500 18007KT 5SM BR BKN008
     FM301700 17010KT P6SM SCT015
     FM310100 15007KT P6SM SKC=



000
FTUS43 KOAX 301120
TAFOFK
TAF
KOFK 301120Z 3012/3112 18007KT 1 1/2SM BR OVC002
      TEMPO 3012/3014 1/2SM FG
     FM301400 17006KT 2SM BR BKN005
      TEMPO 3015/3017 P6SM NSW SCT010
     FM301700 18013G20KT P6SM SKC
     FM310000 16008KT P6SM SKC=



000
FTUS43 KOAX 301120
TAFLNK
TAF
KLNK 301120Z 3012/3112 19005KT 5SM BR OVC004
      TEMPO 3012/3014 1SM BR OVC002
     FM301500 18008KT P6SM BKN008
     FM310100 16006KT P6SM SKC=



000
FTUS43 KOAX 301120
TAFOFK
TAF
KOFK 301120Z 3012/3112 18007KT 1 1/2SM BR OVC002
      TEMPO 3012/3014 1/2SM FG
     FM301400 17006KT 2SM BR BKN005
      TEMPO 3015/3017 P6SM NSW SCT010
     FM301700 18013G20KT P6SM SKC
     FM310000 16008KT P6SM SKC=



000
FTUS43 KOAX 301120
TAFOFK
TAF
KOFK 301120Z 3012/3112 18007KT 1 1/2SM BR OVC002
      TEMPO 3012/3014 1/2SM FG
     FM301400 17006KT 2SM BR BKN005
      TEMPO 3015/3017 P6SM NSW SCT010
     FM301700 18013G20KT P6SM SKC
     FM310000 16008KT P6SM SKC=



000
FTUS43 KOAX 301120
TAFLNK
TAF
KLNK 301120Z 3012/3112 19005KT 5SM BR OVC004
      TEMPO 3012/3014 1SM BR OVC002
     FM301500 18008KT P6SM BKN008
     FM310100 16006KT P6SM SKC=



000
FTUS43 KOAX 301120
TAFOMA
TAF
KOMA 301120Z 3012/3112 19005KT 3SM BR OVC004
      TEMPO 3012/3014 3/4SM BR OVC002
     FM301500 18007KT 5SM BR BKN008
     FM301700 17010KT P6SM SCT015
     FM310100 15007KT P6SM SKC=



000
FTUS43 KOAX 301120
TAFOMA
TAF
KOMA 301120Z 3012/3112 19005KT 3SM BR OVC004
      TEMPO 3012/3014 3/4SM BR OVC002
     FM301500 18007KT 5SM BR BKN008
     FM301700 17010KT P6SM SCT015
     FM310100 15007KT P6SM SKC=



000
FTUS43 KOAX 301120
TAFOMA
TAF
KOMA 301120Z 3012/3112 19005KT 3SM BR OVC004
      TEMPO 3012/3014 3/4SM BR OVC002
     FM301500 18007KT 5SM BR BKN008
     FM301700 17010KT P6SM SCT015
     FM310100 15007KT P6SM SKC=



000
FTUS43 KOAX 301120
TAFLNK
TAF
KLNK 301120Z 3012/3112 19005KT 5SM BR OVC004
      TEMPO 3012/3014 1SM BR OVC002
     FM301500 18008KT P6SM BKN008
     FM310100 16006KT P6SM SKC=



000
FTUS43 KOAX 300903 AAB
TAFOFK
TAF AMD
KOFK 300903Z 3009/3106 18005KT 3/4SM BR OVC002
      TEMPO 3009/3013 1/4SM FG
     FM301400 17006KT 2SM BR BKN007
      TEMPO 3014/3018 P6SM NSW SCT010
     FM301800 18012G18KT P6SM SKC
     FM310000 16008KT P6SM SKC=



000
FTUS43 KOAX 300759 AAB
TAFLNK
TAF AMD
KLNK 300759Z 3008/3106 19005KT 4SM BR OVC004
      TEMPO 3009/3013 1/2SM FG OVC001
     FM301500 18008KT P6SM SCT015=



000
FTUS43 KOAX 300759 AAB
TAFLNK
TAF AMD
KLNK 300759Z 3008/3106 19005KT 4SM BR OVC004
      TEMPO 3009/3013 1/2SM FG OVC001
     FM301500 18008KT P6SM SCT015=



000
FTUS43 KOAX 300759 AAB
TAFLNK
TAF AMD
KLNK 300759Z 3008/3106 19005KT 4SM BR OVC004
      TEMPO 3009/3013 1/2SM FG OVC001
     FM301500 18008KT P6SM SCT015=



000
FTUS43 KOAX 300759 AAB
TAFLNK
TAF AMD
KLNK 300759Z 3008/3106 19005KT 4SM BR OVC004
      TEMPO 3009/3013 1/2SM FG OVC001
     FM301500 18008KT P6SM SCT015=



000
FTUS43 KOAX 300614 AAA
TAFOMA
TAF AMD
KOMA 300614Z 3006/3106 16006KT P6SM OVC017
      TEMPO 3006/3007 5SM BR SCT017
     FM300700 16005KT 5SM BR SCT018
      TEMPO 3007/3011 1SM BR BKN004
     FM301100 17005KT 1SM BR OVC004
      TEMPO 3011/3014 1/2SM FG
     FM301500 17006KT 5SM BR BKN010
     FM301700 17010KT P6SM SCT020=



000
FTUS43 KOAX 300614 AAA
TAFOMA
TAF AMD
KOMA 300614Z 3006/3106 16006KT P6SM OVC017
      TEMPO 3006/3007 5SM BR SCT017
     FM300700 16005KT 5SM BR SCT018
      TEMPO 3007/3011 1SM BR BKN004
     FM301100 17005KT 1SM BR OVC004
      TEMPO 3011/3014 1/2SM FG
     FM301500 17006KT 5SM BR BKN010
     FM301700 17010KT P6SM SCT020=



000
FTUS43 KOAX 300614 AAA
TAFOMA
TAF AMD
KOMA 300614Z 3006/3106 16006KT P6SM OVC017
      TEMPO 3006/3007 5SM BR SCT017
     FM300700 16005KT 5SM BR SCT018
      TEMPO 3007/3011 1SM BR BKN004
     FM301100 17005KT 1SM BR OVC004
      TEMPO 3011/3014 1/2SM FG
     FM301500 17006KT 5SM BR BKN010
     FM301700 17010KT P6SM SCT020=



000
FTUS43 KOAX 300614 AAA
TAFOMA
TAF AMD
KOMA 300614Z 3006/3106 16006KT P6SM OVC017
      TEMPO 3006/3007 5SM BR SCT017
     FM300700 16005KT 5SM BR SCT018
      TEMPO 3007/3011 1SM BR BKN004
     FM301100 17005KT 1SM BR OVC004
      TEMPO 3011/3014 1/2SM FG
     FM301500 17006KT 5SM BR BKN010
     FM301700 17010KT P6SM SCT020=



000
FTUS43 KOAX 300608 AAA
TAFLNK
TAF AMD
KLNK 300608Z 3006/3106 19007KT 5SM BR OVC008
      TEMPO 3009/3013 3SM BR
     FM301500 18008KT P6SM SCT015=



000
FTUS43 KOAX 300608 AAA
TAFLNK
TAF AMD
KLNK 300608Z 3006/3106 19007KT 5SM BR OVC008
      TEMPO 3009/3013 3SM BR
     FM301500 18008KT P6SM SCT015=



000
FTUS43 KOAX 300608 AAA
TAFLNK
TAF AMD
KLNK 300608Z 3006/3106 19007KT 5SM BR OVC008
      TEMPO 3009/3013 3SM BR
     FM301500 18008KT P6SM SCT015=



000
FTUS43 KOAX 300608 AAA
TAFLNK
TAF AMD
KLNK 300608Z 3006/3106 19007KT 5SM BR OVC008
      TEMPO 3009/3013 3SM BR
     FM301500 18008KT P6SM SCT015=



000
FTUS43 KOAX 300607 AAA
TAFOFK
TAF AMD
KOFK 300607Z 3006/3106 17008KT 5SM BR OVC004
      TEMPO 3007/3009 2SM BR SCT004
     FM300900 17006KT 2SM BR BKN004
      TEMPO 3014/3018 P6SM NSW SCT010
     FM301800 18012G18KT P6SM SKC
     FM310000 16008KT P6SM SKC=



000
FTUS43 KOAX 300607 AAA
TAFOFK
TAF AMD
KOFK 300607Z 3006/3106 17008KT 5SM BR OVC004
      TEMPO 3007/3009 2SM BR SCT004
     FM300900 17006KT 2SM BR BKN004
      TEMPO 3014/3018 P6SM NSW SCT010
     FM301800 18012G18KT P6SM SKC
     FM310000 16008KT P6SM SKC=



000
FTUS43 KOAX 300607 AAA
TAFOFK
TAF AMD
KOFK 300607Z 3006/3106 17008KT 5SM BR OVC004
      TEMPO 3007/3009 2SM BR SCT004
     FM300900 17006KT 2SM BR BKN004
      TEMPO 3014/3018 P6SM NSW SCT010
     FM301800 18012G18KT P6SM SKC
     FM310000 16008KT P6SM SKC=



000
FTUS43 KOAX 300607 AAA
TAFOFK
TAF AMD
KOFK 300607Z 3006/3106 17008KT 5SM BR OVC004
      TEMPO 3007/3009 2SM BR SCT004
     FM300900 17006KT 2SM BR BKN004
      TEMPO 3014/3018 P6SM NSW SCT010
     FM301800 18012G18KT P6SM SKC
     FM310000 16008KT P6SM SKC=



000
FTUS43 KOAX 300520
TAFLNK
TAF
KLNK 300520Z 3006/3106 11004KT P6SM OVC007
      TEMPO 3009/3013 4SM BR
     FM301500 18008KT P6SM SCT015=



000
FTUS43 KOAX 300520
TAFOMA
TAF
KOMA 300520Z 3006/3106 13003KT P6SM OVC017
      TEMPO 3009/3013 5SM BR
     FM301500 17008KT P6SM SCT015=



000
FTUS43 KOAX 300520
TAFOMA
TAF
KOMA 300520Z 3006/3106 13003KT P6SM OVC017
      TEMPO 3009/3013 5SM BR
     FM301500 17008KT P6SM SCT015=



000
FTUS43 KOAX 300520
TAFOFK
TAF
KOFK 300520Z 3006/3106 18005KT P6SM SCT005
      TEMPO 3007/3009 4SM BR BKN005
     FM300900 18005KT 4SM BR BKN005
      TEMPO 3014/3018 P6SM NSW SCT010
     FM301800 18012G18KT P6SM SKC
     FM310000 16008KT P6SM SKC=



000
FTUS43 KOAX 300520
TAFOMA
TAF
KOMA 300520Z 3006/3106 13003KT P6SM OVC017
      TEMPO 3009/3013 5SM BR
     FM301500 17008KT P6SM SCT015=



000
FTUS43 KOAX 300520
TAFOFK
TAF
KOFK 300520Z 3006/3106 18005KT P6SM SCT005
      TEMPO 3007/3009 4SM BR BKN005
     FM300900 18005KT 4SM BR BKN005
      TEMPO 3014/3018 P6SM NSW SCT010
     FM301800 18012G18KT P6SM SKC
     FM310000 16008KT P6SM SKC=



000
FTUS43 KOAX 300520
TAFOMA
TAF
KOMA 300520Z 3006/3106 13003KT P6SM OVC017
      TEMPO 3009/3013 5SM BR
     FM301500 17008KT P6SM SCT015=



000
FTUS43 KOAX 300520
TAFLNK
TAF
KLNK 300520Z 3006/3106 11004KT P6SM OVC007
      TEMPO 3009/3013 4SM BR
     FM301500 18008KT P6SM SCT015=



000
FTUS43 KOAX 300520
TAFLNK
TAF
KLNK 300520Z 3006/3106 11004KT P6SM OVC007
      TEMPO 3009/3013 4SM BR
     FM301500 18008KT P6SM SCT015=



000
FTUS43 KOAX 300406 AAA
TAFLNK
TAF AMD
KLNK 300406Z 3004/3024 11004KT P6SM OVC007
      TEMPO 3009/3013 4SM BR
     FM301400 18008KT P6SM SCT015=



000
FTUS43 KOAX 300406 AAA
TAFLNK
TAF AMD
KLNK 300406Z 3004/3024 11004KT P6SM OVC007
      TEMPO 3009/3013 4SM BR
     FM301400 18008KT P6SM SCT015=



000
FTUS43 KOAX 300217 AAA
TAFOMA
TAF AMD
KOMA 300217Z 3002/3024 13003KT P6SM BKN019
      TEMPO 3003/3007 5SM BR SCT010
     FM300700 VRB03KT 4SM BR SCT010
      TEMPO 3010/3012 1/2SM FG BKN007
     FM301400 17008KT P6SM SCT015=



000
FTUS43 KOAX 300217 AAA
TAFOMA
TAF AMD
KOMA 300217Z 3002/3024 13003KT P6SM BKN019
      TEMPO 3003/3007 5SM BR SCT010
     FM300700 VRB03KT 4SM BR SCT010
      TEMPO 3010/3012 1/2SM FG BKN007
     FM301400 17008KT P6SM SCT015=



000
FTUS43 KOAX 300217 AAA
TAFOMA
TAF AMD
KOMA 300217Z 3002/3024 13003KT P6SM BKN019
      TEMPO 3003/3007 5SM BR SCT010
     FM300700 VRB03KT 4SM BR SCT010
      TEMPO 3010/3012 1/2SM FG BKN007
     FM301400 17008KT P6SM SCT015=



000
FTUS43 KOAX 292324
TAFOMA
TAF
KOMA 292324Z 3000/3024 11004KT P6SM SCT020 BKN200
     FM300300 14003KT P6SM SCT200
     FM300900 VRB03KT 4SM BR SCT010
      TEMPO 3010/3012 1/2SM FG BKN007
     FM301400 17008KT P6SM SCT015=



000
FTUS43 KOAX 292324
TAFLNK
TAF
KLNK 292324Z 3000/3024 11004KT P6SM BKN200
     FM300200 15003KT P6SM SCT200
      TEMPO 3009/3013 4SM BR
     FM301400 18008KT P6SM SCT015=



000
FTUS43 KOAX 292324
TAFOFK
TAF
KOFK 292324Z 3000/3024 16005KT P6SM SCT200
      TEMPO 3009/3012 4SM BR
     FM301800 18012G18KT P6SM SKC=



000
FTUS43 KOAX 292324
TAFOMA
TAF
KOMA 292324Z 3000/3024 11004KT P6SM SCT020 BKN200
     FM300300 14003KT P6SM SCT200
     FM300900 VRB03KT 4SM BR SCT010
      TEMPO 3010/3012 1/2SM FG BKN007
     FM301400 17008KT P6SM SCT015=



000
FTUS43 KOAX 292324
TAFLNK
TAF
KLNK 292324Z 3000/3024 11004KT P6SM BKN200
     FM300200 15003KT P6SM SCT200
      TEMPO 3009/3013 4SM BR
     FM301400 18008KT P6SM SCT015=



000
FTUS43 KOAX 292324
TAFOMA
TAF
KOMA 292324Z 3000/3024 11004KT P6SM SCT020 BKN200
     FM300300 14003KT P6SM SCT200
     FM300900 VRB03KT 4SM BR SCT010
      TEMPO 3010/3012 1/2SM FG BKN007
     FM301400 17008KT P6SM SCT015=



000
FTUS43 KOAX 292046 AAA
TAFOMA
TAF AMD
KOMA 292046Z 2921/3018 29004KT P6SM OVC017
     FM292300 VRB04KT P6SM SKC
      TEMPO 3010/3012 4SM BR=



000
FTUS43 KOAX 292046 AAA
TAFOMA
TAF AMD
KOMA 292046Z 2921/3018 29004KT P6SM OVC017
     FM292300 VRB04KT P6SM SKC
      TEMPO 3010/3012 4SM BR=



000
FTUS43 KOAX 291720
TAFOMA
TAF
KOMA 291720Z 2918/3018 34008KT P6SM OVC010
      TEMPO 2918/2920 SCT008
     FM292000 06004KT P6SM SKC
      TEMPO 3010/3012 4SM BR=



000
FTUS43 KOAX 291720
TAFOFK
TAF
KOFK 291720Z 2918/3018 18005KT P6SM SKC
      TEMPO 3009/3012 4SM BR=



000
FTUS43 KOAX 291720
TAFLNK
TAF
KLNK 291720Z 2918/3018 36009KT P6SM OVC008
      TEMPO 2918/2919 SCT012
     FM291900 10004KT P6SM SKC
      TEMPO 3010/3012 4SM BR=



000
FTUS43 KOAX 291720
TAFOMA
TAF
KOMA 291720Z 2918/3018 34008KT P6SM OVC010
      TEMPO 2918/2920 SCT008
     FM292000 06004KT P6SM SKC
      TEMPO 3010/3012 4SM BR=



000
FTUS43 KOAX 291635 AAB
TAFOFK
TAF AMD
KOFK 291635Z 2917/3012 28003KT P6SM SCT008=



000
FTUS43 KOAX 291635 AAB
TAFOFK
TAF AMD
KOFK 291635Z 2917/3012 28003KT P6SM SCT008=



000
FTUS43 KOAX 291532 AAB
TAFLNK
TAF AMD
KLNK 291532Z 2916/3012 36009KT P6SM OVC005
     FM292000 10004KT P6SM SKC=



000
FTUS43 KOAX 291532 AAB
TAFLNK
TAF AMD
KLNK 291532Z 2916/3012 36009KT P6SM OVC005
     FM292000 10004KT P6SM SKC=



000
FTUS43 KOAX 291532 AAB
TAFLNK
TAF AMD
KLNK 291532Z 2916/3012 36009KT P6SM OVC005
     FM292000 10004KT P6SM SKC=



000
FTUS43 KOAX 291532 AAB
TAFLNK
TAF AMD
KLNK 291532Z 2916/3012 36009KT P6SM OVC005
     FM292000 10004KT P6SM SKC=



000
FTUS43 KOAX 291528 AAA
TAFOMA
TAF AMD
KOMA 291528Z 2915/3012 34008KT P6SM OVC005
     FM292100 06007KT P6SM SKC
      TEMPO 3010/3012 4SM BR=



000
FTUS43 KOAX 291528 AAA
TAFOMA
TAF AMD
KOMA 291528Z 2915/3012 34008KT P6SM OVC005
     FM292100 06007KT P6SM SKC
      TEMPO 3010/3012 4SM BR=



000
FTUS43 KOAX 291523 AAA
TAFOFK
TAF AMD
KOFK 291523Z 2915/3012 30004KT P6SM OVC005
     FM291900 18005KT P6SM SKC=



000
FTUS43 KOAX 291523 AAA
TAFOFK
TAF AMD
KOFK 291523Z 2915/3012 30004KT P6SM OVC005
     FM291900 18005KT P6SM SKC=



000
FTUS43 KOAX 291445 AAA
TAFLNK
TAF AMD
KLNK 291445Z 2915/3012 01009KT 6SM BR OVC005
      TEMPO 2915/2916 5SM BR BKN003
     FM291600 10004KT P6SM SKC=



000
FTUS43 KOAX 291445 AAA
TAFLNK
TAF AMD
KLNK 291445Z 2915/3012 01009KT 6SM BR OVC005
      TEMPO 2915/2916 5SM BR BKN003
     FM291600 10004KT P6SM SKC=



000
FTUS43 KOAX 291445 AAA
TAFLNK
TAF AMD
KLNK 291445Z 2915/3012 01009KT 6SM BR OVC005
      TEMPO 2915/2916 5SM BR BKN003
     FM291600 10004KT P6SM SKC=



000
FTUS43 KOAX 291445 AAA
TAFLNK
TAF AMD
KLNK 291445Z 2915/3012 01009KT 6SM BR OVC005
      TEMPO 2915/2916 5SM BR BKN003
     FM291600 10004KT P6SM SKC=



000
FTUS43 KOAX 291120
TAFOMA
TAF
KOMA 291120Z 2912/3012 35007KT P6SM OVC006
      TEMPO 2912/2914 5SM BR
     FM291500 35005KT P6SM OVC012
     FM291700 06007KT P6SM SKC
      TEMPO 3010/3012 4SM BR=



000
FTUS43 KOAX 291120
TAFOFK
TAF
KOFK 291120Z 2912/3012 VRB03KT P6SM OVC005
      TEMPO 2912/2913 4SM BR
     FM291500 18005KT P6SM SKC=



000
FTUS43 KOAX 291120
TAFOFK
TAF
KOFK 291120Z 2912/3012 VRB03KT P6SM OVC005
      TEMPO 2912/2913 4SM BR
     FM291500 18005KT P6SM SKC=



000
FTUS43 KOAX 291120
TAFOMA
TAF
KOMA 291120Z 2912/3012 35007KT P6SM OVC006
      TEMPO 2912/2914 5SM BR
     FM291500 35005KT P6SM OVC012
     FM291700 06007KT P6SM SKC
      TEMPO 3010/3012 4SM BR=



000
FTUS43 KOAX 291120
TAFOFK
TAF
KOFK 291120Z 2912/3012 VRB03KT P6SM OVC005
      TEMPO 2912/2913 4SM BR
     FM291500 18005KT P6SM SKC=



000
FTUS43 KOAX 291120
TAFOMA
TAF
KOMA 291120Z 2912/3012 35007KT P6SM OVC006
      TEMPO 2912/2914 5SM BR
     FM291500 35005KT P6SM OVC012
     FM291700 06007KT P6SM SKC
      TEMPO 3010/3012 4SM BR=



000
FTUS43 KOAX 291120
TAFLNK
TAF
KLNK 291120Z 2912/3012 04007KT 4SM BR OVC004
      TEMPO 2912/2914 2SM BR
     FM291500 10004KT P6SM SKC
      TEMPO 2915/2916 5SM BR BKN008=



000
FTUS43 KOAX 291120
TAFLNK
TAF
KLNK 291120Z 2912/3012 04007KT 4SM BR OVC004
      TEMPO 2912/2914 2SM BR
     FM291500 10004KT P6SM SKC
      TEMPO 2915/2916 5SM BR BKN008=



000
FTUS43 KOAX 291120
TAFLNK
TAF
KLNK 291120Z 2912/3012 04007KT 4SM BR OVC004
      TEMPO 2912/2914 2SM BR
     FM291500 10004KT P6SM SKC
      TEMPO 2915/2916 5SM BR BKN008=



000
FTUS43 KOAX 291120
TAFLNK
TAF
KLNK 291120Z 2912/3012 04007KT 4SM BR OVC004
      TEMPO 2912/2914 2SM BR
     FM291500 10004KT P6SM SKC
      TEMPO 2915/2916 5SM BR BKN008=



000
FTUS43 KOAX 290820 AAB
TAFOFK
TAF AMD
KOFK 290820Z 2908/3006 36006KT P6SM OVC005
      TEMPO 2909/2913 4SM BR
     FM291400 VRB06KT P6SM SKC=



000
FTUS43 KOAX 290820 AAB
TAFOFK
TAF AMD
KOFK 290820Z 2908/3006 36006KT P6SM OVC005
      TEMPO 2909/2913 4SM BR
     FM291400 VRB06KT P6SM SKC=



000
FTUS43 KOAX 290626 AAA
TAFOFK
TAF AMD
KOFK 290626Z 2906/3006 35006KT P6SM OVC009
     FM290800 VRB03KT 4SM BR BKN008
      TEMPO 2909/2913 1/2SM FG
     FM291400 VRB06KT P6SM SKC=



000
FTUS43 KOAX 290626 AAA
TAFOFK
TAF AMD
KOFK 290626Z 2906/3006 35006KT P6SM OVC009
     FM290800 VRB03KT 4SM BR BKN008
      TEMPO 2909/2913 1/2SM FG
     FM291400 VRB06KT P6SM SKC=



000
FTUS43 KOAX 290626 AAA
TAFOFK
TAF AMD
KOFK 290626Z 2906/3006 35006KT P6SM OVC009
     FM290800 VRB03KT 4SM BR BKN008
      TEMPO 2909/2913 1/2SM FG
     FM291400 VRB06KT P6SM SKC=



000
FTUS43 KOAX 290626 AAA
TAFOFK
TAF AMD
KOFK 290626Z 2906/3006 35006KT P6SM OVC009
     FM290800 VRB03KT 4SM BR BKN008
      TEMPO 2909/2913 1/2SM FG
     FM291400 VRB06KT P6SM SKC=



000
FTUS43 KOAX 290520
TAFOMA
TAF
KOMA 290520Z 2906/3006 35007KT 5SM BR OVC006
     FM290800 35005KT 5SM BR OVC005
      TEMPO 2910/2914 2SM BR OVC003
     FM291600 35005KT P6SM OVC012
     FM291900 03007KT P6SM SKC=



000
FTUS43 KOAX 290520
TAFLNK
TAF
KLNK 290520Z 2906/3006 36007KT P6SM OVC025
      TEMPO 2910/2914 2SM BR OVC015
     FM291500 01007KT P6SM SCT015=



000
FTUS43 KOAX 290520
TAFOMA
TAF
KOMA 290520Z 2906/3006 35007KT 5SM BR OVC006
     FM290800 35005KT 5SM BR OVC005
      TEMPO 2910/2914 2SM BR OVC003
     FM291600 35005KT P6SM OVC012
     FM291900 03007KT P6SM SKC=



000
FTUS43 KOAX 290520
TAFOFK
TAF
KOFK 290520Z 2906/3006 04005KT P6SM SCT012
      TEMPO 2906/2908 BKN012
     FM290800 VRB03KT 4SM BR BKN012
      TEMPO 2909/2913 1/2SM FG BKN007
     FM291400 VRB06KT P6SM SKC=



000
FTUS43 KOAX 290520
TAFLNK
TAF
KLNK 290520Z 2906/3006 36007KT P6SM OVC025
      TEMPO 2910/2914 2SM BR OVC015
     FM291500 01007KT P6SM SCT015=



000
FTUS43 KOAX 290520
TAFOFK
TAF
KOFK 290520Z 2906/3006 04005KT P6SM SCT012
      TEMPO 2906/2908 BKN012
     FM290800 VRB03KT 4SM BR BKN012
      TEMPO 2909/2913 1/2SM FG BKN007
     FM291400 VRB06KT P6SM SKC=



000
FTUS43 KOAX 290520
TAFOMA
TAF
KOMA 290520Z 2906/3006 35007KT 5SM BR OVC006
     FM290800 35005KT 5SM BR OVC005
      TEMPO 2910/2914 2SM BR OVC003
     FM291600 35005KT P6SM OVC012
     FM291900 03007KT P6SM SKC=



000
FTUS43 KOAX 290520
TAFLNK
TAF
KLNK 290520Z 2906/3006 36007KT P6SM OVC025
      TEMPO 2910/2914 2SM BR OVC015
     FM291500 01007KT P6SM SCT015=



000
FTUS43 KOAX 290520
TAFOMA
TAF
KOMA 290520Z 2906/3006 35007KT 5SM BR OVC006
     FM290800 35005KT 5SM BR OVC005
      TEMPO 2910/2914 2SM BR OVC003
     FM291600 35005KT P6SM OVC012
     FM291900 03007KT P6SM SKC=



000
FTUS43 KOAX 290520
TAFOFK
TAF
KOFK 290520Z 2906/3006 04005KT P6SM SCT012
      TEMPO 2906/2908 BKN012
     FM290800 VRB03KT 4SM BR BKN012
      TEMPO 2909/2913 1/2SM FG BKN007
     FM291400 VRB06KT P6SM SKC=



000
FTUS43 KOAX 290520
TAFLNK
TAF
KLNK 290520Z 2906/3006 36007KT P6SM OVC025
      TEMPO 2910/2914 2SM BR OVC015
     FM291500 01007KT P6SM SCT015=



000
FTUS43 KOAX 290520
TAFOFK
TAF
KOFK 290520Z 2906/3006 04005KT P6SM SCT012
      TEMPO 2906/2908 BKN012
     FM290800 VRB03KT 4SM BR BKN012
      TEMPO 2909/2913 1/2SM FG BKN007
     FM291400 VRB06KT P6SM SKC=



    US Dept of Commerce
    National Oceanic and Atmospheric Administration
    National Weather Service
    1325 East West Highway
    Silver Spring, MD 20910
    Page Author: NWS Internet Services Team
Disclaimer
Information Quality
Credits
Glossary
Privacy Policy
Freedom of Information Act (FOIA)
About Us
Career Opportunities